sensor_id;sensor_type;location;lat;lon;timestamp;P1;durP1;ratioP1;P2;durP2;ratioP2
23444;SDS011;11895;48.738;9.320;2023-04-24T00:00:33;1.95;;;1.00;;
23444;SDS011;11895;48.738;9.320;2023-04-24T00:03:04;1.90;;;1.10;;
23444;SDS011;11895;48.738;9.320;2023-04-24T00:05:33;2.25;;;0.90;;
23444;SDS011;11895;48.738;9.320;2023-04-24T00:08:01;1.40;;;0.90;;
23444;SDS011;11895;48.738;9.320;2023-04-24T00:10:29;2.10;;;1.27;;
23444;SDS011;11895;48.738;9.320;2023-04-24T00:12:57;2.38;;;0.95;;
23444;SDS011;11895;48.738;9.320;2023-04-24T00:15:26;4.57;;;0.90;;
23444;SDS011;11895;48.738;9.320;2023-04-24T00:17:53;2.20;;;0.80;;
23444;SDS011;11895;48.738;9.320;2023-04-24T00:20:21;2.45;;;0.93;;
23444;SDS011;11895;48.738;9.320;2023-04-24T00:22:51;1.77;;;1.00;;
23444;SDS011;11895;48.738;9.320;2023-04-24T00:25:22;2.35;;;1.08;;
23444;SDS011;11895;48.738;9.320;2023-04-24T00:27:49;1.67;;;0.93;;
23444;SDS011;11895;48.738;9.320;2023-04-24T00:30:17;3.75;;;0.90;;
23444;SDS011;11895;48.738;9.320;2023-04-24T00:32:45;1.42;;;0.80;;
23444;SDS011;11895;48.738;9.320;2023-04-24T00:35:13;5.55;;;1.13;;
23444;SDS011;11895;48.738;9.320;2023-04-24T00:37:42;2.00;;;0.80;;
23444;SDS011;11895;48.738;9.320;2023-04-24T00:40:09;3.25;;;0.88;;
23444;SDS011;11895;48.738;9.320;2023-04-24T00:42:39;3.25;;;1.13;;
23444;SDS011;11895;48.738;9.320;2023-04-24T00:45:07;2.50;;;1.30;;
23444;SDS011;11895;48.738;9.320;2023-04-24T00:50:05;2.97;;;1.08;;
23444;SDS011;11895;48.738;9.320;2023-04-24T00:52:34;1.55;;;1.02;;
23444;SDS011;11895;48.738;9.320;2023-04-24T00:55:02;1.83;;;1.07;;
23444;SDS011;11895;48.738;9.320;2023-04-24T00:57:30;2.65;;;1.20;;
23444;SDS011;11895;48.738;9.320;2023-04-24T00:59:58;1.87;;;0.80;;
23444;SDS011;11895;48.738;9.320;2023-04-24T01:02:26;3.42;;;0.80;;
23444;SDS011;11895;48.738;9.320;2023-04-24T01:04:56;1.88;;;1.08;;
23444;SDS011;11895;48.738;9.320;2023-04-24T01:07:24;3.10;;;1.00;;
23444;SDS011;11895;48.738;9.320;2023-04-24T01:09:52;1.73;;;0.80;;
23444;SDS011;11895;48.738;9.320;2023-04-24T01:12:20;1.45;;;1.13;;
23444;SDS011;11895;48.738;9.320;2023-04-24T01:14:48;1.57;;;1.00;;
23444;SDS011;11895;48.738;9.320;2023-04-24T01:17:17;2.13;;;0.90;;
23444;SDS011;11895;48.738;9.320;2023-04-24T01:19:46;2.10;;;0.90;;
23444;SDS011;11895;48.738;9.320;2023-04-24T01:22:14;1.85;;;0.80;;
23444;SDS011;11895;48.738;9.320;2023-04-24T01:27:11;1.92;;;1.00;;
23444;SDS011;11895;48.738;9.320;2023-04-24T01:29:40;4.60;;;1.00;;
23444;SDS011;11895;48.738;9.320;2023-04-24T01:32:09;2.75;;;0.90;;
23444;SDS011;11895;48.738;9.320;2023-04-24T01:34:37;2.10;;;1.05;;
23444;SDS011;11895;48.738;9.320;2023-04-24T01:37:09;3.80;;;0.90;;
23444;SDS011;11895;48.738;9.320;2023-04-24T01:39:37;1.30;;;0.90;;
23444;SDS011;11895;48.738;9.320;2023-04-24T01:42:05;2.60;;;0.80;;
23444;SDS011;11895;48.738;9.320;2023-04-24T01:44:33;6.32;;;1.05;;
23444;SDS011;11895;48.738;9.320;2023-04-24T01:47:02;1.00;;;0.68;;
23444;SDS011;11895;48.738;9.320;2023-04-24T01:49:31;1.10;;;0.77;;
23444;SDS011;11895;48.738;9.320;2023-04-24T01:51:59;1.70;;;0.90;;
23444;SDS011;11895;48.738;9.320;2023-04-24T01:54:29;3.88;;;0.77;;
23444;SDS011;11895;48.738;9.320;2023-04-24T01:56:57;2.47;;;0.70;;
23444;SDS011;11895;48.738;9.320;2023-04-24T01:59:27;2.50;;;0.80;;
23444;SDS011;11895;48.738;9.320;2023-04-24T02:01:56;2.00;;;0.88;;
23444;SDS011;11895;48.738;9.320;2023-04-24T02:04:28;2.28;;;0.93;;
23444;SDS011;11895;48.738;9.320;2023-04-24T02:06:56;2.33;;;0.95;;
23444;SDS011;11895;48.738;9.320;2023-04-24T02:09:24;1.60;;;0.70;;
23444;SDS011;11895;48.738;9.320;2023-04-24T02:11:51;1.40;;;0.70;;
23444;SDS011;11895;48.738;9.320;2023-04-24T02:14:19;2.30;;;0.82;;
23444;SDS011;11895;48.738;9.320;2023-04-24T02:16:47;1.83;;;0.80;;
23444;SDS011;11895;48.738;9.320;2023-04-24T02:19:14;1.95;;;0.80;;
23444;SDS011;11895;48.738;9.320;2023-04-24T02:21:42;2.97;;;1.10;;
23444;SDS011;11895;48.738;9.320;2023-04-24T02:24:10;1.70;;;0.80;;
23444;SDS011;11895;48.738;9.320;2023-04-24T02:26:38;1.15;;;0.77;;
23444;SDS011;11895;48.738;9.320;2023-04-24T02:29:05;1.35;;;0.77;;
23444;SDS011;11895;48.738;9.320;2023-04-24T02:31:33;1.33;;;0.73;;
23444;SDS011;11895;48.738;9.320;2023-04-24T02:34:01;5.90;;;1.00;;
23444;SDS011;11895;48.738;9.320;2023-04-24T02:36:29;3.92;;;0.90;;
23444;SDS011;11895;48.738;9.320;2023-04-24T02:38:57;1.75;;;0.73;;
23444;SDS011;11895;48.738;9.320;2023-04-24T02:41:25;2.35;;;0.80;;
23444;SDS011;11895;48.738;9.320;2023-04-24T02:44:21;2.72;;;0.88;;
23444;SDS011;11895;48.738;9.320;2023-04-24T02:46:49;2.75;;;0.68;;
23444;SDS011;11895;48.738;9.320;2023-04-24T02:49:18;3.53;;;0.80;;
23444;SDS011;11895;48.738;9.320;2023-04-24T02:51:46;2.00;;;0.60;;
23444;SDS011;11895;48.738;9.320;2023-04-24T02:54:14;2.95;;;0.73;;
23444;SDS011;11895;48.738;9.320;2023-04-24T02:56:41;2.20;;;0.80;;
23444;SDS011;11895;48.738;9.320;2023-04-24T02:59:09;3.65;;;0.90;;
23444;SDS011;11895;48.738;9.320;2023-04-24T03:01:37;1.95;;;0.85;;
23444;SDS011;11895;48.738;9.320;2023-04-24T03:04:07;3.28;;;0.60;;
23444;SDS011;11895;48.738;9.320;2023-04-24T03:06:37;4.15;;;0.60;;
23444;SDS011;11895;48.738;9.320;2023-04-24T03:09:05;2.70;;;0.80;;
23444;SDS011;11895;48.738;9.320;2023-04-24T03:11:37;1.98;;;0.70;;
23444;SDS011;11895;48.738;9.320;2023-04-24T03:14:07;4.38;;;0.70;;
23444;SDS011;11895;48.738;9.320;2023-04-24T03:16:36;4.75;;;0.80;;
23444;SDS011;11895;48.738;9.320;2023-04-24T03:19:05;3.67;;;0.90;;
23444;SDS011;11895;48.738;9.320;2023-04-24T03:21:40;3.63;;;0.82;;
23444;SDS011;11895;48.738;9.320;2023-04-24T03:24:09;4.90;;;1.45;;
23444;SDS011;11895;48.738;9.320;2023-04-24T03:26:37;5.15;;;1.00;;
23444;SDS011;11895;48.738;9.320;2023-04-24T03:29:26;2.45;;;0.70;;
23444;SDS011;11895;48.738;9.320;2023-04-24T03:31:56;2.22;;;0.93;;
23444;SDS011;11895;48.738;9.320;2023-04-24T03:34:25;1.88;;;0.68;;
23444;SDS011;11895;48.738;9.320;2023-04-24T03:36:53;3.72;;;0.63;;
23444;SDS011;11895;48.738;9.320;2023-04-24T03:39:21;2.00;;;0.75;;
23444;SDS011;11895;48.738;9.320;2023-04-24T03:41:54;3.55;;;1.05;;
23444;SDS011;11895;48.738;9.320;2023-04-24T03:44:31;2.83;;;1.02;;
23444;SDS011;11895;48.738;9.320;2023-04-24T03:47:01;2.75;;;1.10;;
23444;SDS011;11895;48.738;9.320;2023-04-24T03:49:34;2.85;;;0.80;;
23444;SDS011;11895;48.738;9.320;2023-04-24T03:52:01;2.03;;;1.05;;
23444;SDS011;11895;48.738;9.320;2023-04-24T03:54:29;4.47;;;0.90;;
23444;SDS011;11895;48.738;9.320;2023-04-24T03:56:59;2.92;;;0.82;;
23444;SDS011;11895;48.738;9.320;2023-04-24T03:59:30;6.45;;;1.15;;
23444;SDS011;11895;48.738;9.320;2023-04-24T04:02:09;3.55;;;0.98;;
23444;SDS011;11895;48.738;9.320;2023-04-24T04:04:37;4.43;;;0.95;;
23444;SDS011;11895;48.738;9.320;2023-04-24T04:07:05;4.15;;;0.80;;
23444;SDS011;11895;48.738;9.320;2023-04-24T04:09:34;5.35;;;0.90;;
23444;SDS011;11895;48.738;9.320;2023-04-24T04:12:04;2.53;;;0.77;;
23444;SDS011;11895;48.738;9.320;2023-04-24T04:14:34;3.28;;;1.17;;
23444;SDS011;11895;48.738;9.320;2023-04-24T04:17:05;1.80;;;0.85;;
23444;SDS011;11895;48.738;9.320;2023-04-24T04:19:34;1.38;;;1.02;;
23444;SDS011;11895;48.738;9.320;2023-04-24T04:22:02;4.22;;;1.20;;
23444;SDS011;11895;48.738;9.320;2023-04-24T04:24:40;1.95;;;0.90;;
23444;SDS011;11895;48.738;9.320;2023-04-24T04:27:09;4.53;;;0.90;;
23444;SDS011;11895;48.738;9.320;2023-04-24T04:30:13;3.65;;;1.25;;
23444;SDS011;11895;48.738;9.320;2023-04-24T04:32:49;3.00;;;1.20;;
23444;SDS011;11895;48.738;9.320;2023-04-24T04:35:18;3.05;;;1.13;;
23444;SDS011;11895;48.738;9.320;2023-04-24T04:37:50;3.05;;;1.40;;
23444;SDS011;11895;48.738;9.320;2023-04-24T04:40:32;3.08;;;0.90;;
23444;SDS011;11895;48.738;9.320;2023-04-24T04:43:04;1.23;;;0.77;;
23444;SDS011;11895;48.738;9.320;2023-04-24T04:45:42;13.40;;;1.48;;
23444;SDS011;11895;48.738;9.320;2023-04-24T04:48:27;4.70;;;1.15;;
23444;SDS011;11895;48.738;9.320;2023-04-24T04:51:00;6.88;;;1.40;;
23444;SDS011;11895;48.738;9.320;2023-04-24T04:53:28;3.42;;;1.08;;
23444;SDS011;11895;48.738;9.320;2023-04-24T04:55:57;1.85;;;0.98;;
23444;SDS011;11895;48.738;9.320;2023-04-24T04:58:33;2.75;;;1.10;;
23444;SDS011;11895;48.738;9.320;2023-04-24T05:03:39;2.70;;;1.52;;
23444;SDS011;11895;48.738;9.320;2023-04-24T05:06:11;3.42;;;1.58;;
23444;SDS011;11895;48.738;9.320;2023-04-24T05:08:39;5.33;;;1.70;;
23444;SDS011;11895;48.738;9.320;2023-04-24T05:11:13;2.55;;;1.90;;
23444;SDS011;11895;48.738;9.320;2023-04-24T05:13:41;4.60;;;2.23;;
23444;SDS011;11895;48.738;9.320;2023-04-24T05:16:17;3.38;;;1.63;;
23444;SDS011;11895;48.738;9.320;2023-04-24T05:21:18;4.90;;;1.95;;
23444;SDS011;11895;48.738;9.320;2023-04-24T05:23:50;4.75;;;2.33;;
23444;SDS011;11895;48.738;9.320;2023-04-24T05:26:35;5.72;;;2.45;;
23444;SDS011;11895;48.738;9.320;2023-04-24T05:29:08;8.80;;;2.65;;
23444;SDS011;11895;48.738;9.320;2023-04-24T05:31:35;3.78;;;2.53;;
23444;SDS011;11895;48.738;9.320;2023-04-24T05:34:04;7.13;;;3.00;;
23444;SDS011;11895;48.738;9.320;2023-04-24T05:36:40;4.70;;;2.70;;
23444;SDS011;11895;48.738;9.320;2023-04-24T05:46:17;4.05;;;2.60;;
23444;SDS011;11895;48.738;9.320;2023-04-24T05:48:46;5.15;;;2.33;;
23444;SDS011;11895;48.738;9.320;2023-04-24T05:51:14;4.80;;;2.70;;
23444;SDS011;11895;48.738;9.320;2023-04-24T05:53:41;6.00;;;2.30;;
23444;SDS011;11895;48.738;9.320;2023-04-24T05:56:10;5.55;;;2.47;;
23444;SDS011;11895;48.738;9.320;2023-04-24T05:58:39;8.15;;;2.97;;
23444;SDS011;11895;48.738;9.320;2023-04-24T06:01:08;4.47;;;2.42;;
23444;SDS011;11895;48.738;9.320;2023-04-24T06:03:38;5.03;;;3.20;;
23444;SDS011;11895;48.738;9.320;2023-04-24T06:06:06;4.15;;;2.13;;
23444;SDS011;11895;48.738;9.320;2023-04-24T06:08:37;5.20;;;2.42;;
23444;SDS011;11895;48.738;9.320;2023-04-24T06:11:05;4.45;;;2.92;;
23444;SDS011;11895;48.738;9.320;2023-04-24T06:13:33;6.00;;;2.95;;
23444;SDS011;11895;48.738;9.320;2023-04-24T06:16:20;9.93;;;2.78;;
23444;SDS011;11895;48.738;9.320;2023-04-24T06:18:54;4.63;;;3.22;;
23444;SDS011;11895;48.738;9.320;2023-04-24T06:21:22;10.15;;;2.70;;
23444;SDS011;11895;48.738;9.320;2023-04-24T06:23:50;5.68;;;2.45;;
23444;SDS011;11895;48.738;9.320;2023-04-24T06:26:23;3.67;;;2.50;;
23444;SDS011;11895;48.738;9.320;2023-04-24T06:28:54;5.68;;;2.72;;
23444;SDS011;11895;48.738;9.320;2023-04-24T06:31:21;9.07;;;3.58;;
23444;SDS011;11895;48.738;9.320;2023-04-24T06:33:50;3.10;;;2.43;;
23444;SDS011;11895;48.738;9.320;2023-04-24T06:36:17;12.00;;;2.65;;
23444;SDS011;11895;48.738;9.320;2023-04-24T06:38:45;3.58;;;2.95;;
23444;SDS011;11895;48.738;9.320;2023-04-24T06:41:13;12.23;;;2.72;;
23444;SDS011;11895;48.738;9.320;2023-04-24T06:43:40;4.72;;;3.15;;
23444;SDS011;11895;48.738;9.320;2023-04-24T06:46:08;6.32;;;2.80;;
23444;SDS011;11895;48.738;9.320;2023-04-24T06:48:36;3.63;;;2.87;;
23444;SDS011;11895;48.738;9.320;2023-04-24T06:51:04;3.90;;;2.92;;
23444;SDS011;11895;48.738;9.320;2023-04-24T06:53:32;5.35;;;2.70;;
23444;SDS011;11895;48.738;9.320;2023-04-24T06:55:59;8.07;;;3.10;;
23444;SDS011;11895;48.738;9.320;2023-04-24T06:58:30;6.38;;;2.80;;
23444;SDS011;11895;48.738;9.320;2023-04-24T07:00:58;4.97;;;2.67;;
23444;SDS011;11895;48.738;9.320;2023-04-24T07:03:26;5.47;;;3.00;;
23444;SDS011;11895;48.738;9.320;2023-04-24T07:05:54;4.45;;;2.83;;
23444;SDS011;11895;48.738;9.320;2023-04-24T07:08:22;5.03;;;2.70;;
23444;SDS011;11895;48.738;9.320;2023-04-24T07:10:50;3.53;;;2.17;;
23444;SDS011;11895;48.738;9.320;2023-04-24T07:13:18;4.20;;;2.67;;
23444;SDS011;11895;48.738;9.320;2023-04-24T07:15:46;8.30;;;2.97;;
23444;SDS011;11895;48.738;9.320;2023-04-24T07:18:16;3.72;;;2.80;;
23444;SDS011;11895;48.738;9.320;2023-04-24T07:20:44;5.03;;;2.90;;
23444;SDS011;11895;48.738;9.320;2023-04-24T07:23:12;7.28;;;3.45;;
23444;SDS011;11895;48.738;9.320;2023-04-24T07:25:40;3.05;;;2.25;;
23444;SDS011;11895;48.738;9.320;2023-04-24T07:28:08;4.30;;;2.17;;
23444;SDS011;11895;48.738;9.320;2023-04-24T07:30:39;6.90;;;2.10;;
23444;SDS011;11895;48.738;9.320;2023-04-24T07:33:07;4.32;;;1.60;;
23444;SDS011;11895;48.738;9.320;2023-04-24T07:35:35;3.70;;;1.70;;
23444;SDS011;11895;48.738;9.320;2023-04-24T07:38:03;2.85;;;1.38;;
23444;SDS011;11895;48.738;9.320;2023-04-24T07:40:31;2.92;;;1.65;;
23444;SDS011;11895;48.738;9.320;2023-04-24T07:42:58;4.32;;;1.63;;
23444;SDS011;11895;48.738;9.320;2023-04-24T07:45:26;1.40;;;1.10;;
23444;SDS011;11895;48.738;9.320;2023-04-24T07:47:54;2.25;;;1.40;;
23444;SDS011;11895;48.738;9.320;2023-04-24T07:50:22;3.33;;;1.67;;
23444;SDS011;11895;48.738;9.320;2023-04-24T07:52:50;3.63;;;1.50;;
23444;SDS011;11895;48.738;9.320;2023-04-24T07:55:18;2.53;;;1.17;;
23444;SDS011;11895;48.738;9.320;2023-04-24T07:57:49;1.70;;;1.15;;
23444;SDS011;11895;48.738;9.320;2023-04-24T08:02:47;3.72;;;1.38;;
23444;SDS011;11895;48.738;9.320;2023-04-24T08:05:16;3.15;;;1.50;;
23444;SDS011;11895;48.738;9.320;2023-04-24T08:07:45;3.88;;;1.15;;
23444;SDS011;11895;48.738;9.320;2023-04-24T08:10:16;5.13;;;1.30;;
23444;SDS011;11895;48.738;9.320;2023-04-24T08:12:54;2.40;;;1.13;;
23444;SDS011;11895;48.738;9.320;2023-04-24T08:15:22;2.47;;;1.07;;
23444;SDS011;11895;48.738;9.320;2023-04-24T08:17:50;1.40;;;0.90;;
23444;SDS011;11895;48.738;9.320;2023-04-24T08:20:18;2.42;;;0.90;;
23444;SDS011;11895;48.738;9.320;2023-04-24T08:22:46;2.15;;;1.08;;
23444;SDS011;11895;48.738;9.320;2023-04-24T08:25:15;2.45;;;1.25;;
23444;SDS011;11895;48.738;9.320;2023-04-24T08:27:44;1.50;;;1.23;;
23444;SDS011;11895;48.738;9.320;2023-04-24T08:30:12;2.22;;;1.10;;
23444;SDS011;11895;48.738;9.320;2023-04-24T08:32:40;1.67;;;1.10;;
23444;SDS011;11895;48.738;9.320;2023-04-24T08:35:10;4.78;;;1.50;;
23444;SDS011;11895;48.738;9.320;2023-04-24T08:37:45;2.10;;;1.52;;
23444;SDS011;11895;48.738;9.320;2023-04-24T08:40:13;3.03;;;1.33;;
23444;SDS011;11895;48.738;9.320;2023-04-24T08:42:43;4.00;;;1.30;;
23444;SDS011;11895;48.738;9.320;2023-04-24T08:45:19;2.95;;;0.90;;
23444;SDS011;11895;48.738;9.320;2023-04-24T08:47:50;1.48;;;0.98;;
23444;SDS011;11895;48.738;9.320;2023-04-24T08:50:21;1.33;;;1.17;;
23444;SDS011;11895;48.738;9.320;2023-04-24T08:52:49;2.97;;;1.45;;
23444;SDS011;11895;48.738;9.320;2023-04-24T08:55:20;1.90;;;1.10;;
23444;SDS011;11895;48.738;9.320;2023-04-24T08:57:51;5.07;;;1.20;;
23444;SDS011;11895;48.738;9.320;2023-04-24T09:00:21;3.22;;;1.15;;
23444;SDS011;11895;48.738;9.320;2023-04-24T09:02:49;2.78;;;1.23;;
23444;SDS011;11895;48.738;9.320;2023-04-24T09:05:20;1.45;;;1.00;;
23444;SDS011;11895;48.738;9.320;2023-04-24T09:07:54;4.30;;;1.35;;
23444;SDS011;11895;48.738;9.320;2023-04-24T09:10:24;2.55;;;1.10;;
23444;SDS011;11895;48.738;9.320;2023-04-24T09:12:53;1.88;;;1.20;;
23444;SDS011;11895;48.738;9.320;2023-04-24T09:15:25;2.30;;;1.30;;
23444;SDS011;11895;48.738;9.320;2023-04-24T09:17:55;2.88;;;1.40;;
23444;SDS011;11895;48.738;9.320;2023-04-24T09:20:23;3.10;;;1.48;;
23444;SDS011;11895;48.738;9.320;2023-04-24T09:22:54;3.78;;;1.50;;
23444;SDS011;11895;48.738;9.320;2023-04-24T09:25:34;2.17;;;1.27;;
23444;SDS011;11895;48.738;9.320;2023-04-24T09:28:03;5.50;;;1.48;;
23444;SDS011;11895;48.738;9.320;2023-04-24T09:30:33;3.83;;;0.90;;
23444;SDS011;11895;48.738;9.320;2023-04-24T09:33:10;3.58;;;1.42;;
23444;SDS011;11895;48.738;9.320;2023-04-24T09:35:42;3.03;;;1.83;;
23444;SDS011;11895;48.738;9.320;2023-04-24T09:38:17;2.70;;;1.30;;
23444;SDS011;11895;48.738;9.320;2023-04-24T09:40:46;2.88;;;0.85;;
23444;SDS011;11895;48.738;9.320;2023-04-24T09:43:14;4.03;;;1.23;;
23444;SDS011;11895;48.738;9.320;2023-04-24T09:45:42;5.90;;;1.38;;
23444;SDS011;11895;48.738;9.320;2023-04-24T09:48:10;1.52;;;1.02;;
23444;SDS011;11895;48.738;9.320;2023-04-24T09:50:38;2.92;;;1.45;;
23444;SDS011;11895;48.738;9.320;2023-04-24T09:53:06;4.22;;;1.42;;
23444;SDS011;11895;48.738;9.320;2023-04-24T09:55:38;4.63;;;1.00;;
23444;SDS011;11895;48.738;9.320;2023-04-24T09:58:12;3.08;;;1.10;;
23444;SDS011;11895;48.738;9.320;2023-04-24T10:00:40;5.15;;;2.53;;
23444;SDS011;11895;48.738;9.320;2023-04-24T10:03:12;2.30;;;1.20;;
23444;SDS011;11895;48.738;9.320;2023-04-24T10:05:39;1.55;;;1.02;;
23444;SDS011;11895;48.738;9.320;2023-04-24T10:08:10;2.03;;;1.08;;
23444;SDS011;11895;48.738;9.320;2023-04-24T10:10:41;1.60;;;0.90;;
23444;SDS011;11895;48.738;9.320;2023-04-24T10:13:12;4.00;;;1.10;;
23444;SDS011;11895;48.738;9.320;2023-04-24T10:15:42;2.67;;;0.95;;
23444;SDS011;11895;48.738;9.320;2023-04-24T10:18:10;1.38;;;0.77;;
23444;SDS011;11895;48.738;9.320;2023-04-24T10:20:39;1.92;;;0.85;;
23444;SDS011;11895;48.738;9.320;2023-04-24T10:23:07;3.17;;;1.30;;
23444;SDS011;11895;48.738;9.320;2023-04-24T10:25:37;1.30;;;0.80;;
23444;SDS011;11895;48.738;9.320;2023-04-24T10:28:05;2.33;;;0.80;;
23444;SDS011;11895;48.738;9.320;2023-04-24T10:30:36;3.08;;;1.00;;
23444;SDS011;11895;48.738;9.320;2023-04-24T10:35:36;1.83;;;0.98;;
23444;SDS011;11895;48.738;9.320;2023-04-24T10:38:12;1.02;;;0.80;;
23444;SDS011;11895;48.738;9.320;2023-04-24T10:40:45;1.27;;;0.75;;
23444;SDS011;11895;48.738;9.320;2023-04-24T10:43:15;6.80;;;0.98;;
23444;SDS011;11895;48.738;9.320;2023-04-24T10:46:01;2.80;;;0.90;;
23444;SDS011;11895;48.738;9.320;2023-04-24T10:51:01;1.90;;;0.73;;
23444;SDS011;11895;48.738;9.320;2023-04-24T10:53:30;2.83;;;0.80;;
23444;SDS011;11895;48.738;9.320;2023-04-24T10:58:40;1.55;;;0.80;;
23444;SDS011;11895;48.738;9.320;2023-04-24T11:01:27;2.10;;;0.80;;
23444;SDS011;11895;48.738;9.320;2023-04-24T11:04:00;1.70;;;0.80;;
23444;SDS011;11895;48.738;9.320;2023-04-24T11:06:31;2.42;;;0.98;;
23444;SDS011;11895;48.738;9.320;2023-04-24T11:09:05;2.58;;;1.10;;
23444;SDS011;11895;48.738;9.320;2023-04-24T11:11:43;0.98;;;0.73;;
23444;SDS011;11895;48.738;9.320;2023-04-24T11:14:16;2.55;;;0.80;;
23444;SDS011;11895;48.738;9.320;2023-04-24T11:16:51;2.95;;;0.90;;
23444;SDS011;11895;48.738;9.320;2023-04-24T11:19:25;2.47;;;0.90;;
23444;SDS011;11895;48.738;9.320;2023-04-24T11:24:32;2.80;;;0.95;;
23444;SDS011;11895;48.738;9.320;2023-04-24T11:27:14;1.77;;;0.70;;
23444;SDS011;11895;48.738;9.320;2023-04-24T11:32:28;1.92;;;1.00;;
23444;SDS011;11895;48.738;9.320;2023-04-24T11:35:02;2.08;;;0.80;;
23444;SDS011;11895;48.738;9.320;2023-04-24T11:37:43;2.10;;;0.90;;
23444;SDS011;11895;48.738;9.320;2023-04-24T11:40:36;3.75;;;0.90;;
23444;SDS011;11895;48.738;9.320;2023-04-24T11:43:05;1.90;;;0.80;;
23444;SDS011;11895;48.738;9.320;2023-04-24T11:45:33;1.85;;;1.00;;
23444;SDS011;11895;48.738;9.320;2023-04-24T11:48:02;3.17;;;1.00;;
23444;SDS011;11895;48.738;9.320;2023-04-24T11:50:30;2.25;;;1.35;;
23444;SDS011;11895;48.738;9.320;2023-04-24T11:53:00;3.38;;;1.30;;
23444;SDS011;11895;48.738;9.320;2023-04-24T11:55:28;1.02;;;0.88;;
23444;SDS011;11895;48.738;9.320;2023-04-24T11:57:57;1.48;;;0.88;;
23444;SDS011;11895;48.738;9.320;2023-04-24T12:00:27;2.65;;;0.90;;
23444;SDS011;11895;48.738;9.320;2023-04-24T12:03:08;3.60;;;1.20;;
23444;SDS011;11895;48.738;9.320;2023-04-24T12:05:38;2.40;;;1.05;;
23444;SDS011;11895;48.738;9.320;2023-04-24T12:08:08;3.17;;;1.00;;
23444;SDS011;11895;48.738;9.320;2023-04-24T12:10:35;1.38;;;1.05;;
23444;SDS011;11895;48.738;9.320;2023-04-24T12:13:04;4.13;;;1.23;;
23444;SDS011;11895;48.738;9.320;2023-04-24T12:15:32;1.83;;;0.97;;
23444;SDS011;11895;48.738;9.320;2023-04-24T12:18:00;2.15;;;1.30;;
23444;SDS011;11895;48.738;9.320;2023-04-24T12:20:28;4.60;;;1.45;;
23444;SDS011;11895;48.738;9.320;2023-04-24T12:23:01;3.33;;;1.33;;
23444;SDS011;11895;48.738;9.320;2023-04-24T12:25:29;4.53;;;0.90;;
23444;SDS011;11895;48.738;9.320;2023-04-24T12:30:32;6.38;;;1.80;;
23444;SDS011;11895;48.738;9.320;2023-04-24T12:33:34;3.20;;;0.93;;
23444;SDS011;11895;48.738;9.320;2023-04-24T12:36:03;3.38;;;1.45;;
23444;SDS011;11895;48.738;9.320;2023-04-24T12:38:32;3.30;;;1.00;;
23444;SDS011;11895;48.738;9.320;2023-04-24T12:41:08;1.95;;;1.13;;
23444;SDS011;11895;48.738;9.320;2023-04-24T12:43:38;5.43;;;0.95;;
23444;SDS011;11895;48.738;9.320;2023-04-24T12:46:19;1.92;;;1.10;;
23444;SDS011;11895;48.738;9.320;2023-04-24T12:48:48;4.07;;;1.15;;
23444;SDS011;11895;48.738;9.320;2023-04-24T12:51:16;1.23;;;1.05;;
23444;SDS011;11895;48.738;9.320;2023-04-24T12:53:44;6.13;;;1.42;;
23444;SDS011;11895;48.738;9.320;2023-04-24T12:56:12;2.80;;;1.10;;
23444;SDS011;11895;48.738;9.320;2023-04-24T12:58:40;7.75;;;2.17;;
23444;SDS011;11895;48.738;9.320;2023-04-24T13:01:07;3.22;;;1.40;;
23444;SDS011;11895;48.738;9.320;2023-04-24T13:03:35;2.65;;;1.15;;
23444;SDS011;11895;48.738;9.320;2023-04-24T13:06:03;1.70;;;1.05;;
23444;SDS011;11895;48.738;9.320;2023-04-24T13:08:31;3.42;;;1.20;;
23444;SDS011;11895;48.738;9.320;2023-04-24T13:11:01;1.58;;;1.10;;
23444;SDS011;11895;48.738;9.320;2023-04-24T13:13:29;3.28;;;1.05;;
23444;SDS011;11895;48.738;9.320;2023-04-24T13:15:57;0.93;;;0.80;;
23444;SDS011;11895;48.738;9.320;2023-04-24T13:18:25;4.53;;;1.20;;
23444;SDS011;11895;48.738;9.320;2023-04-24T13:20:52;3.13;;;1.33;;
23444;SDS011;11895;48.738;9.320;2023-04-24T13:23:20;2.77;;;1.00;;
23444;SDS011;11895;48.738;9.320;2023-04-24T13:25:49;1.95;;;1.10;;
23444;SDS011;11895;48.738;9.320;2023-04-24T13:28:16;2.88;;;1.10;;
23444;SDS011;11895;48.738;9.320;2023-04-24T13:30:47;1.52;;;1.00;;
23444;SDS011;11895;48.738;9.320;2023-04-24T13:33:17;4.32;;;1.40;;
23444;SDS011;11895;48.738;9.320;2023-04-24T13:35:45;2.35;;;1.30;;
23444;SDS011;11895;48.738;9.320;2023-04-24T13:38:13;4.88;;;1.77;;
23444;SDS011;11895;48.738;9.320;2023-04-24T13:40:41;3.58;;;1.52;;
23444;SDS011;11895;48.738;9.320;2023-04-24T13:43:08;3.17;;;1.30;;
23444;SDS011;11895;48.738;9.320;2023-04-24T13:45:36;2.33;;;1.50;;
23444;SDS011;11895;48.738;9.320;2023-04-24T13:48:04;1.45;;;1.02;;
23444;SDS011;11895;48.738;9.320;2023-04-24T13:50:32;5.72;;;1.00;;
23444;SDS011;11895;48.738;9.320;2023-04-24T13:53:03;1.48;;;1.10;;
23444;SDS011;11895;48.738;9.320;2023-04-24T13:55:30;1.15;;;1.05;;
23444;SDS011;11895;48.738;9.320;2023-04-24T13:57:58;1.77;;;1.00;;
23444;SDS011;11895;48.738;9.320;2023-04-24T14:00:27;1.92;;;1.20;;
23444;SDS011;11895;48.738;9.320;2023-04-24T14:02:55;2.47;;;1.30;;
23444;SDS011;11895;48.738;9.320;2023-04-24T14:05:23;2.90;;;1.85;;
23444;SDS011;11895;48.738;9.320;2023-04-24T14:07:51;3.30;;;2.37;;
23444;SDS011;11895;48.738;9.320;2023-04-24T14:10:19;2.72;;;1.50;;
23444;SDS011;11895;48.738;9.320;2023-04-24T14:12:47;4.10;;;1.30;;
23444;SDS011;11895;48.738;9.320;2023-04-24T14:15:16;1.88;;;1.30;;
23444;SDS011;11895;48.738;9.320;2023-04-24T14:17:44;1.83;;;1.00;;
23444;SDS011;11895;48.738;9.320;2023-04-24T14:20:12;3.13;;;1.70;;
23444;SDS011;11895;48.738;9.320;2023-04-24T14:22:39;2.70;;;1.27;;
23444;SDS011;11895;48.738;9.320;2023-04-24T14:25:07;2.88;;;1.20;;
23444;SDS011;11895;48.738;9.320;2023-04-24T14:27:36;4.57;;;1.20;;
23444;SDS011;11895;48.738;9.320;2023-04-24T14:30:04;2.70;;;1.20;;
23444;SDS011;11895;48.738;9.320;2023-04-24T14:32:33;2.63;;;1.25;;
23444;SDS011;11895;48.738;9.320;2023-04-24T14:35:03;2.35;;;1.10;;
23444;SDS011;11895;48.738;9.320;2023-04-24T14:37:34;3.05;;;1.50;;
23444;SDS011;11895;48.738;9.320;2023-04-24T14:40:03;3.55;;;1.50;;
23444;SDS011;11895;48.738;9.320;2023-04-24T14:42:37;1.20;;;1.05;;
23444;SDS011;11895;48.738;9.320;2023-04-24T14:45:04;3.42;;;1.45;;
23444;SDS011;11895;48.738;9.320;2023-04-24T14:47:33;2.33;;;1.17;;
23444;SDS011;11895;48.738;9.320;2023-04-24T14:50:03;3.20;;;1.35;;
23444;SDS011;11895;48.738;9.320;2023-04-24T14:52:32;2.58;;;1.30;;
23444;SDS011;11895;48.738;9.320;2023-04-24T14:55:00;2.15;;;1.15;;
23444;SDS011;11895;48.738;9.320;2023-04-24T14:57:28;3.60;;;1.58;;
23444;SDS011;11895;48.738;9.320;2023-04-24T14:59:55;2.00;;;1.30;;
23444;SDS011;11895;48.738;9.320;2023-04-24T15:02:23;1.20;;;1.02;;
23444;SDS011;11895;48.738;9.320;2023-04-24T15:04:51;1.42;;;1.05;;
23444;SDS011;11895;48.738;9.320;2023-04-24T15:07:19;2.85;;;1.35;;
23444;SDS011;11895;48.738;9.320;2023-04-24T15:09:47;3.10;;;1.25;;
23444;SDS011;11895;48.738;9.320;2023-04-24T15:12:18;2.58;;;1.08;;
23444;SDS011;11895;48.738;9.320;2023-04-24T15:14:46;4.43;;;1.50;;
23444;SDS011;11895;48.738;9.320;2023-04-24T15:17:13;2.55;;;1.30;;
23444;SDS011;11895;48.738;9.320;2023-04-24T15:19:41;4.68;;;1.52;;
23444;SDS011;11895;48.738;9.320;2023-04-24T15:22:09;2.47;;;1.23;;
23444;SDS011;11895;48.738;9.320;2023-04-24T15:24:37;3.33;;;1.50;;
23444;SDS011;11895;48.738;9.320;2023-04-24T15:27:08;3.47;;;1.73;;
23444;SDS011;11895;48.738;9.320;2023-04-24T15:29:40;4.10;;;1.27;;
23444;SDS011;11895;48.738;9.320;2023-04-24T15:32:08;6.72;;;3.63;;
23444;SDS011;11895;48.738;9.320;2023-04-24T15:34:36;2.33;;;1.35;;
23444;SDS011;11895;48.738;9.320;2023-04-24T15:37:04;2.15;;;1.33;;
23444;SDS011;11895;48.738;9.320;2023-04-24T15:39:31;2.10;;;1.27;;